Time,TemperatureF,DewpointF,PressureIn,WindDirection,WindDirectionDegrees,WindSpeedMPH,WindSpeedGustMPH,Humidity,HourlyPrecipIn,Conditions,Clouds,dailyrainin,SoftwareType,DateUTC
2015-07-31 00:04:00,66.1,56.0,29.89,NW,315,0.0,0.0,70,0.00,,,0.00,WUHU216HW,2015-07-31 05:04:00,
2015-07-31 00:09:00,65.9,55.8,29.89,NW,315,0.0,0.0,70,0.00,,,0.00,WUHU216HW,2015-07-31 05:09:00,
2015-07-31 00:14:00,65.7,55.7,29.89,NW,315,0.0,0.0,70,0.00,,,0.00,WUHU216HW,2015-07-31 05:14:00,
2015-07-31 00:19:00,65.5,55.9,29.89,West,270,0.4,0.4,71,0.00,,,0.00,WUHU216HW,2015-07-31 05:19:00,
2015-07-31 00:24:00,65.5,56.3,29.89,WNW,293,0.0,0.4,72,0.00,,,0.00,WUHU216HW,2015-07-31 05:24:00,
2015-07-31 00:29:00,65.7,56.4,29.89,West,270,0.0,0.4,72,0.00,,,0.00,WUHU216HW,2015-07-31 05:29:00,
2015-07-31 00:34:00,65.9,56.6,29.89,West,270,0.0,0.0,72,0.00,,,0.00,WUHU216HW,2015-07-31 05:34:00,
2015-07-31 00:36:00,65.7,56.4,29.89,West,270,0.0,0.0,72,0.00,,,0.00,WUHU216HW,2015-07-31 05:36:00,
2015-07-31 00:39:00,65.7,56.4,29.89,West,270,0.0,0.0,72,0.00,,,0.00,WUHU216HW,2015-07-31 05:39:00,
2015-07-31 00:44:00,65.7,56.4,29.89,West,270,0.0,0.0,72,0.00,,,0.00,WUHU216HW,2015-07-31 05:44:00,
2015-07-31 01:00:00,65.9,56.6,29.89,WSW,248,0.0,0.0,72,0.00,,,0.00,WUHU216HW,2015-07-31 06:00:00,
2015-07-31 01:05:00,65.9,56.6,29.89,West,270,0.0,0.0,72,0.00,,,0.00,WUHU216HW,2015-07-31 06:05:00,
2015-07-31 01:10:00,65.9,56.6,29.89,WNW,293,0.0,0.4,72,0.00,,,0.00,WUHU216HW,2015-07-31 06:10:00,
2015-07-31 01:15:00,65.9,56.6,29.89,West,270,0.0,0.4,72,0.00,,,0.00,WUHU216HW,2015-07-31 06:15:00,
2015-07-31 01:20:00,65.9,56.6,29.89,West,270,0.0,0.0,72,0.00,,,0.00,WUHU216HW,2015-07-31 06:20:00,
2015-07-31 01:25:00,65.9,56.6,29.89,NNW,338,0.0,0.0,72,0.00,,,0.00,WUHU216HW,2015-07-31 06:25:00,
2015-07-31 01:30:00,65.9,56.6,29.89,NNW,338,0.0,0.0,72,0.00,,,0.00,WUHU216HW,2015-07-31 06:30:00,
2015-07-31 01:35:00,65.9,57.0,29.89,West,270,0.0,0.0,73,0.00,,,0.00,WUHU216HW,2015-07-31 06:35:00,
2015-07-31 01:42:00,65.9,57.0,29.89,WNW,293,0.0,0.0,73,0.00,,,0.00,WUHU216HW,2015-07-31 06:42:00,
2015-07-31 01:45:00,65.9,57.0,29.89,WNW,293,0.0,0.0,73,0.00,,,0.00,WUHU216HW,2015-07-31 06:45:00,
2015-07-31 01:50:00,65.9,57.0,29.89,WNW,293,0.0,0.0,73,0.00,,,0.00,WUHU216HW,2015-07-31 06:50:00,
2015-07-31 02:00:00,65.5,56.6,29.89,WNW,293,0.0,0.0,73,0.00,,,0.00,WUHU216HW,2015-07-31 07:00:00,
2015-07-31 02:05:00,65.3,56.8,29.89,WNW,293,0.0,0.0,74,0.00,,,0.00,WUHU216HW,2015-07-31 07:05:00,
2015-07-31 02:10:00,65.0,56.5,29.89,WNW,293,0.0,0.0,74,0.00,,,0.00,WUHU216HW,2015-07-31 07:10:00,
2015-07-31 02:15:00,65.0,56.5,29.89,WNW,293,0.4,0.4,74,0.00,,,0.00,WUHU216HW,2015-07-31 07:15:00,
2015-07-31 02:20:00,64.8,56.4,29.89,WNW,293,0.0,0.4,74,0.00,,,0.00,WUHU216HW,2015-07-31 07:20:00,
2015-07-31 02:25:00,64.8,56.4,29.89,WNW,293,0.0,0.0,74,0.00,,,0.00,WUHU216HW,2015-07-31 07:25:00,
2015-07-31 02:30:00,65.0,56.9,29.89,SSW,203,0.2,0.4,75,0.00,,,0.00,WUHU216HW,2015-07-31 07:30:00,
2015-07-31 02:33:00,65.2,57.1,29.89,SSW,203,0.0,0.0,75,0.00,,,0.00,WUHU216HW,2015-07-31 07:33:00,
2015-07-31 02:35:00,65.2,57.1,29.89,SSW,203,0.0,0.4,75,0.00,,,0.00,WUHU216HW,2015-07-31 07:35:00,
2015-07-31 02:40:00,65.2,57.1,29.89,SSW,203,0.0,0.2,75,0.00,,,0.00,WUHU216HW,2015-07-31 07:40:00,
2015-07-31 03:00:00,65.2,57.1,29.88,SW,225,0.0,0.0,75,0.00,,,0.00,WUHU216HW,2015-07-31 08:00:00,
2015-07-31 03:05:00,65.2,57.4,29.88,WSW,248,0.2,0.4,76,0.00,,,0.00,WUHU216HW,2015-07-31 08:05:00,
2015-07-31 03:10:00,65.2,57.4,29.88,WSW,248,0.2,0.4,76,0.00,,,0.00,WUHU216HW,2015-07-31 08:10:00,
2015-07-31 03:15:00,65.2,57.4,29.88,West,270,0.2,0.4,76,0.00,,,0.00,WUHU216HW,2015-07-31 08:15:00,
2015-07-31 03:20:00,65.2,57.4,29.88,SW,225,0.4,0.9,76,0.00,,,0.00,WUHU216HW,2015-07-31 08:20:00,
2015-07-31 03:25:00,65.2,57.4,29.88,SW,225,0.9,0.9,76,0.00,,,0.00,WUHU216HW,2015-07-31 08:25:00,
2015-07-31 03:30:00,65.2,57.4,29.87,SW,225,0.4,0.9,76,0.00,,,0.00,WUHU216HW,2015-07-31 08:30:00,
2015-07-31 03:35:00,65.2,57.4,29.87,WSW,248,0.2,0.7,76,0.00,,,0.00,WUHU216HW,2015-07-31 08:35:00,
2015-07-31 03:40:00,65.0,57.3,29.87,SW,225,0.0,0.4,76,0.00,,,0.00,WUHU216HW,2015-07-31 08:40:00,
2015-07-31 03:45:00,64.8,57.4,29.87,WSW,248,0.4,0.4,77,0.00,,,0.00,WUHU216HW,2015-07-31 08:45:00,
2015-07-31 03:50:00,64.8,57.4,29.87,WSW,248,0.4,0.4,77,0.00,,,0.00,WUHU216HW,2015-07-31 08:50:00,
2015-07-31 03:55:00,64.6,57.3,29.87,WSW,248,0.0,0.4,77,0.00,,,0.00,WUHU216HW,2015-07-31 08:55:00,
2015-07-31 04:00:00,64.4,57.1,29.87,WSW,248,0.4,0.4,77,0.00,,,0.00,WUHU216HW,2015-07-31 09:00:00,
2015-07-31 04:05:00,64.4,57.1,29.87,WSW,248,0.4,0.4,77,0.00,,,0.00,WUHU216HW,2015-07-31 09:05:00,
2015-07-31 04:10:00,64.4,57.4,29.87,SW,225,0.7,0.7,78,0.00,,,0.00,WUHU216HW,2015-07-31 09:10:00,
2015-07-31 04:15:00,64.6,57.6,29.87,SW,225,0.4,0.9,78,0.00,,,0.00,WUHU216HW,2015-07-31 09:15:00,
2015-07-31 04:20:00,64.6,57.6,29.86,SW,225,0.0,0.9,78,0.00,,,0.00,WUHU216HW,2015-07-31 09:20:00,
2015-07-31 04:25:00,64.6,57.6,29.86,SW,225,0.0,0.4,78,0.00,,,0.00,WUHU216HW,2015-07-31 09:25:00,
2015-07-31 04:30:00,64.4,57.1,29.86,WSW,248,0.0,0.2,77,0.00,,,0.00,WUHU216HW,2015-07-31 09:30:00,
2015-07-31 04:35:00,64.3,57.2,29.86,WSW,248,0.0,0.2,78,0.00,,,0.00,WUHU216HW,2015-07-31 09:35:00,
2015-07-31 04:40:00,64.3,57.6,29.86,SW,225,0.0,0.0,79,0.00,,,0.00,WUHU216HW,2015-07-31 09:40:00,
2015-07-31 04:45:00,64.3,57.6,29.86,SW,225,0.4,0.4,79,0.00,,,0.00,WUHU216HW,2015-07-31 09:45:00,
2015-07-31 04:50:00,64.3,57.6,29.86,SW,225,0.0,0.9,79,0.00,,,0.00,WUHU216HW,2015-07-31 09:50:00,
2015-07-31 04:55:00,64.3,57.6,29.86,SW,225,0.0,0.9,79,0.00,,,0.00,WUHU216HW,2015-07-31 09:55:00,
2015-07-31 05:00:00,64.1,57.4,29.86,WNW,293,0.0,0.0,79,0.00,,,0.00,WUHU216HW,2015-07-31 10:00:00,
2015-07-31 05:05:00,63.9,57.2,29.86,WNW,293,0.0,0.0,79,0.00,,,0.00,WUHU216HW,2015-07-31 10:05:00,
2015-07-31 05:10:00,63.9,57.2,29.86,West,270,0.0,0.4,79,0.00,,,0.00,WUHU216HW,2015-07-31 10:10:00,
2015-07-31 05:15:00,64.3,58.0,29.86,WNW,293,0.0,0.4,80,0.00,,,0.00,WUHU216HW,2015-07-31 10:15:00,
2015-07-31 05:20:00,64.4,58.1,29.86,WSW,248,0.4,1.1,80,0.00,,,0.00,WUHU216HW,2015-07-31 10:20:00,
2015-07-31 05:25:00,64.6,58.3,29.87,WSW,248,0.4,1.1,80,0.00,,,0.00,WUHU216HW,2015-07-31 10:25:00,
2015-07-31 05:30:00,64.6,58.3,29.87,WNW,293,0.0,1.1,80,0.00,,,0.00,WUHU216HW,2015-07-31 10:30:00,